Terminal Aerodrome Forecast
Issued by NWS Midland/Odessa, TX

Home | Current Version | Previous Version | Text Only | Print | Product List | Glossary On
Versions: 1 2 3 4 5 6 7 8 9 10 11 12 13 14 15
000
FTUS44 KMAF 010500
TAFMAF
TAF
KMAF 010528Z 0106/0206 21007KT 4SM BR OVC004
      TEMPO 0106/0110 1/4SM FG OVC002
     FM011600 36014KT P6SM OVC010
     FM011900 02015KT P6SM BKN020
     FM012200 03011KT P6SM BKN035=

USA.gov is the U.S. government's official web portal to all federal, state and local government web resources and services.